グアム の空港の天気 - METARとTAF

グアム国際空港 ( PGUM / GUM ) - グアム ハガニア
飛行場実況気象(Metar)
観測時間02/28 07:54 ChST (02/27 21:54 UTC)
風向・風速東北東 5m/s
視程10km以上
天気現象
なし
気温26.7℃
湿度87%
気圧1012.7hPa
METARPGUM 272154Z 06010KT 10SM CLR 27/24 A2993 RMK AO2 SLP127 T02670244
過去の天気等 Google飛行場航空写真 Wunderground天気予報

過去48時間のMETAR

飛行場予報(TAF)
発表時間: 2/28 06:31 ChST (2/27 20:31 UTC)
予報対象時間: 28日7時 ChST ~ 1日10時 ChST
風向・風速東北東 5m/s
視程10km以上
天気現象周辺でしゅう雨
少しの雲 雲底高度 610m
全天の4割程度の雲 雲底高度 1,370m
全天の4割程度の雲 雲底高度 4,880m
28日12時 ChST から
風向・風速東北東 6m/s 瞬間風速 10m/s
視程10km以上
天気現象周辺でしゅう雨
少しの雲 雲底高度 610m
全天の4割程度の雲 雲底高度 1,370m
全天の4割程度の雲 雲底高度 4,880m
PGUM 272031Z 2721/2824 07010KT P6SM VCSH FEW020 SCT045 SCT160
FM280200 07011G20KT P6SM VCSH FEW020 SCT045 SCT160